sensor_id;sensor_type;location;lat;lon;timestamp;P1;durP1;ratioP1;P2;durP2;ratioP2
76848;SDS011;65814;51.134;16.980;2022-12-05T00:02:01;47.60;;;22.80;;
76848;SDS011;65814;51.134;16.980;2022-12-05T00:04:31;47.90;;;24.90;;
76848;SDS011;65814;51.134;16.980;2022-12-05T00:07:02;42.10;;;22.10;;
76848;SDS011;65814;51.134;16.980;2022-12-05T00:09:30;41.20;;;22.20;;
76848;SDS011;65814;51.134;16.980;2022-12-05T00:11:58;47.10;;;22.50;;
76848;SDS011;65814;51.134;16.980;2022-12-05T00:14:26;48.50;;;23.40;;
76848;SDS011;65814;51.134;16.980;2022-12-05T00:16:55;52.90;;;31.30;;
76848;SDS011;65814;51.134;16.980;2022-12-05T00:19:23;52.10;;;24.30;;
76848;SDS011;65814;51.134;16.980;2022-12-05T00:21:51;39.70;;;21.30;;
76848;SDS011;65814;51.134;16.980;2022-12-05T00:24:20;46.00;;;23.20;;
76848;SDS011;65814;51.134;16.980;2022-12-05T00:26:48;44.40;;;20.70;;
76848;SDS011;65814;51.134;16.980;2022-12-05T00:29:17;46.50;;;23.70;;
76848;SDS011;65814;51.134;16.980;2022-12-05T00:31:45;42.80;;;23.80;;
76848;SDS011;65814;51.134;16.980;2022-12-05T00:34:15;48.60;;;26.20;;
76848;SDS011;65814;51.134;16.980;2022-12-05T00:36:44;44.10;;;24.20;;
76848;SDS011;65814;51.134;16.980;2022-12-05T00:39:12;40.40;;;20.70;;
76848;SDS011;65814;51.134;16.980;2022-12-05T00:41:43;41.70;;;21.00;;
76848;SDS011;65814;51.134;16.980;2022-12-05T00:44:11;43.80;;;23.60;;
76848;SDS011;65814;51.134;16.980;2022-12-05T00:46:40;46.20;;;25.50;;
76848;SDS011;65814;51.134;16.980;2022-12-05T00:49:09;46.00;;;23.90;;
76848;SDS011;65814;51.134;16.980;2022-12-05T00:51:39;47.00;;;25.10;;
76848;SDS011;65814;51.134;16.980;2022-12-05T00:54:10;46.30;;;23.70;;
76848;SDS011;65814;51.134;16.980;2022-12-05T00:56:40;41.20;;;21.80;;
76848;SDS011;65814;51.134;16.980;2022-12-05T00:59:11;43.30;;;22.40;;
76848;SDS011;65814;51.134;16.980;2022-12-05T01:01:46;40.40;;;21.50;;
76848;SDS011;65814;51.134;16.980;2022-12-05T01:04:17;46.80;;;23.60;;
76848;SDS011;65814;51.134;16.980;2022-12-05T01:06:50;47.30;;;23.30;;
76848;SDS011;65814;51.134;16.980;2022-12-05T01:09:21;44.60;;;24.60;;
76848;SDS011;65814;51.134;16.980;2022-12-05T01:11:55;52.70;;;25.40;;
76848;SDS011;65814;51.134;16.980;2022-12-05T01:14:24;51.80;;;24.80;;
76848;SDS011;65814;51.134;16.980;2022-12-05T01:16:53;42.00;;;20.90;;
76848;SDS011;65814;51.134;16.980;2022-12-05T01:19:27;45.90;;;22.50;;
76848;SDS011;65814;51.134;16.980;2022-12-05T01:22:15;45.60;;;22.00;;
76848;SDS011;65814;51.134;16.980;2022-12-05T01:24:43;45.00;;;23.90;;
76848;SDS011;65814;51.134;16.980;2022-12-05T01:27:11;47.20;;;22.00;;
76848;SDS011;65814;51.134;16.980;2022-12-05T01:29:39;53.50;;;24.50;;
76848;SDS011;65814;51.134;16.980;2022-12-05T01:32:07;52.00;;;23.30;;
76848;SDS011;65814;51.134;16.980;2022-12-05T01:34:35;46.30;;;20.70;;
76848;SDS011;65814;51.134;16.980;2022-12-05T01:37:03;41.60;;;21.10;;
76848;SDS011;65814;51.134;16.980;2022-12-05T01:39:31;49.90;;;20.90;;
76848;SDS011;65814;51.134;16.980;2022-12-05T01:42:00;45.80;;;22.70;;
76848;SDS011;65814;51.134;16.980;2022-12-05T01:46:56;45.50;;;22.20;;
76848;SDS011;65814;51.134;16.980;2022-12-05T01:49:35;53.80;;;28.80;;
76848;SDS011;65814;51.134;16.980;2022-12-05T01:52:06;56.00;;;25.40;;
76848;SDS011;65814;51.134;16.980;2022-12-05T01:54:40;44.60;;;21.20;;
76848;SDS011;65814;51.134;16.980;2022-12-05T01:57:09;47.80;;;20.80;;
76848;SDS011;65814;51.134;16.980;2022-12-05T01:59:40;43.80;;;22.10;;
76848;SDS011;65814;51.134;16.980;2022-12-05T02:02:11;44.50;;;22.20;;
76848;SDS011;65814;51.134;16.980;2022-12-05T02:04:53;48.60;;;21.20;;
76848;SDS011;65814;51.134;16.980;2022-12-05T02:07:55;45.40;;;23.00;;
76848;SDS011;65814;51.134;16.980;2022-12-05T02:10:25;51.70;;;26.20;;
76848;SDS011;65814;51.134;16.980;2022-12-05T02:12:54;52.90;;;25.60;;
76848;SDS011;65814;51.134;16.980;2022-12-05T02:18:09;41.80;;;19.40;;
76848;SDS011;65814;51.134;16.980;2022-12-05T02:21:05;41.50;;;21.30;;
76848;SDS011;65814;51.134;16.980;2022-12-05T02:30:09;45.30;;;20.60;;
76848;SDS011;65814;51.134;16.980;2022-12-05T02:38:27;38.80;;;20.30;;
76848;SDS011;65814;51.134;16.980;2022-12-05T02:44:21;50.10;;;21.50;;
76848;SDS011;65814;51.134;16.980;2022-12-05T02:47:12;37.40;;;20.40;;
76848;SDS011;65814;51.134;16.980;2022-12-05T02:49:57;47.50;;;22.60;;
76848;SDS011;65814;51.134;16.980;2022-12-05T02:52:26;44.30;;;21.60;;
76848;SDS011;65814;51.134;16.980;2022-12-05T02:54:56;37.60;;;20.00;;
76848;SDS011;65814;51.134;16.980;2022-12-05T02:57:27;40.10;;;18.40;;
76848;SDS011;65814;51.134;16.980;2022-12-05T02:59:55;38.10;;;19.10;;
76848;SDS011;65814;51.134;16.980;2022-12-05T03:02:25;36.40;;;17.60;;
76848;SDS011;65814;51.134;16.980;2022-12-05T03:07:26;40.50;;;21.70;;
76848;SDS011;65814;51.134;16.980;2022-12-05T03:09:57;47.80;;;21.20;;
76848;SDS011;65814;51.134;16.980;2022-12-05T03:12:28;39.40;;;19.50;;
76848;SDS011;65814;51.134;16.980;2022-12-05T03:15:25;34.50;;;18.40;;
76848;SDS011;65814;51.134;16.980;2022-12-05T03:18:03;41.80;;;20.60;;
76848;SDS011;65814;51.134;16.980;2022-12-05T03:20:53;36.40;;;18.00;;
76848;SDS011;65814;51.134;16.980;2022-12-05T03:23:31;39.50;;;18.10;;
76848;SDS011;65814;51.134;16.980;2022-12-05T03:37:12;32.80;;;17.90;;
76848;SDS011;65814;51.134;16.980;2022-12-05T03:40:04;36.30;;;17.80;;
76848;SDS011;65814;51.134;16.980;2022-12-05T03:42:42;34.80;;;18.20;;
76848;SDS011;65814;51.134;16.980;2022-12-05T03:45:27;34.80;;;16.80;;
76848;SDS011;65814;51.134;16.980;2022-12-05T03:50:55;32.70;;;16.40;;
76848;SDS011;65814;51.134;16.980;2022-12-05T03:53:26;39.70;;;18.30;;
76848;SDS011;65814;51.134;16.980;2022-12-05T03:56:01;40.30;;;19.20;;
76848;SDS011;65814;51.134;16.980;2022-12-05T03:58:38;34.80;;;17.30;;
76848;SDS011;65814;51.134;16.980;2022-12-05T04:01:10;31.00;;;16.90;;
76848;SDS011;65814;51.134;16.980;2022-12-05T04:04:01;34.30;;;17.20;;
76848;SDS011;65814;51.134;16.980;2022-12-05T04:06:52;32.30;;;16.20;;
76848;SDS011;65814;51.134;16.980;2022-12-05T04:09:27;31.40;;;17.70;;
76848;SDS011;65814;51.134;16.980;2022-12-05T04:12:01;32.30;;;17.10;;
76848;SDS011;65814;51.134;16.980;2022-12-05T04:14:39;32.60;;;16.40;;
76848;SDS011;65814;51.134;16.980;2022-12-05T04:17:11;37.50;;;18.00;;
76848;SDS011;65814;51.134;16.980;2022-12-05T04:19:45;31.40;;;17.60;;
76848;SDS011;65814;51.134;16.980;2022-12-05T04:22:33;36.80;;;17.20;;
76848;SDS011;65814;51.134;16.980;2022-12-05T04:25:04;33.40;;;18.00;;
76848;SDS011;65814;51.134;16.980;2022-12-05T04:30:35;36.30;;;18.30;;
76848;SDS011;65814;51.134;16.980;2022-12-05T04:35:42;33.20;;;16.20;;
76848;SDS011;65814;51.134;16.980;2022-12-05T04:38:22;39.90;;;18.40;;
76848;SDS011;65814;51.134;16.980;2022-12-05T04:41:01;33.90;;;19.40;;
76848;SDS011;65814;51.134;16.980;2022-12-05T04:43:32;33.00;;;15.40;;
76848;SDS011;65814;51.134;16.980;2022-12-05T04:46:04;35.50;;;17.30;;
76848;SDS011;65814;51.134;16.980;2022-12-05T04:48:39;30.80;;;16.10;;
76848;SDS011;65814;51.134;16.980;2022-12-05T04:51:15;29.80;;;16.20;;
76848;SDS011;65814;51.134;16.980;2022-12-05T04:53:45;32.00;;;15.20;;
76848;SDS011;65814;51.134;16.980;2022-12-05T04:56:16;33.60;;;17.40;;
76848;SDS011;65814;51.134;16.980;2022-12-05T04:58:45;34.00;;;16.00;;
76848;SDS011;65814;51.134;16.980;2022-12-05T05:01:18;32.30;;;18.70;;
76848;SDS011;65814;51.134;16.980;2022-12-05T05:03:54;32.20;;;16.60;;
76848;SDS011;65814;51.134;16.980;2022-12-05T05:06:25;32.30;;;17.00;;
76848;SDS011;65814;51.134;16.980;2022-12-05T05:08:55;32.10;;;15.80;;
76848;SDS011;65814;51.134;16.980;2022-12-05T05:11:26;28.10;;;14.50;;
76848;SDS011;65814;51.134;16.980;2022-12-05T05:13:55;28.00;;;16.10;;
76848;SDS011;65814;51.134;16.980;2022-12-05T05:16:25;30.60;;;15.10;;
76848;SDS011;65814;51.134;16.980;2022-12-05T05:19:01;28.90;;;14.80;;
76848;SDS011;65814;51.134;16.980;2022-12-05T05:21:32;28.40;;;15.50;;
76848;SDS011;65814;51.134;16.980;2022-12-05T05:24:01;32.00;;;16.90;;
76848;SDS011;65814;51.134;16.980;2022-12-05T05:26:30;30.50;;;16.10;;
76848;SDS011;65814;51.134;16.980;2022-12-05T05:29:01;31.50;;;15.60;;
76848;SDS011;65814;51.134;16.980;2022-12-05T05:31:29;29.40;;;15.60;;
76848;SDS011;65814;51.134;16.980;2022-12-05T05:33:58;33.70;;;15.90;;
76848;SDS011;65814;51.134;16.980;2022-12-05T05:36:34;30.90;;;16.80;;
76848;SDS011;65814;51.134;16.980;2022-12-05T05:39:03;32.80;;;15.40;;
76848;SDS011;65814;51.134;16.980;2022-12-05T05:41:33;31.40;;;15.20;;
76848;SDS011;65814;51.134;16.980;2022-12-05T05:44:02;29.20;;;14.60;;
76848;SDS011;65814;51.134;16.980;2022-12-05T05:46:32;40.10;;;18.10;;
76848;SDS011;65814;51.134;16.980;2022-12-05T05:49:01;30.90;;;16.90;;
76848;SDS011;65814;51.134;16.980;2022-12-05T05:51:29;30.80;;;18.10;;
76848;SDS011;65814;51.134;16.980;2022-12-05T05:53:58;29.70;;;15.20;;
76848;SDS011;65814;51.134;16.980;2022-12-05T05:56:27;28.90;;;15.70;;
76848;SDS011;65814;51.134;16.980;2022-12-05T05:58:56;33.30;;;16.90;;
76848;SDS011;65814;51.134;16.980;2022-12-05T06:01:27;34.00;;;18.50;;
76848;SDS011;65814;51.134;16.980;2022-12-05T06:03:55;33.10;;;18.00;;
76848;SDS011;65814;51.134;16.980;2022-12-05T06:06:24;34.90;;;17.10;;
76848;SDS011;65814;51.134;16.980;2022-12-05T06:08:52;34.70;;;17.30;;
76848;SDS011;65814;51.134;16.980;2022-12-05T06:11:24;41.90;;;19.60;;
76848;SDS011;65814;51.134;16.980;2022-12-05T06:13:54;39.90;;;19.10;;
76848;SDS011;65814;51.134;16.980;2022-12-05T06:16:24;39.10;;;19.20;;
76848;SDS011;65814;51.134;16.980;2022-12-05T06:18:52;33.30;;;18.10;;
76848;SDS011;65814;51.134;16.980;2022-12-05T06:21:21;36.20;;;19.20;;
76848;SDS011;65814;51.134;16.980;2022-12-05T06:23:50;32.70;;;18.60;;
76848;SDS011;65814;51.134;16.980;2022-12-05T06:26:19;41.30;;;20.20;;
76848;SDS011;65814;51.134;16.980;2022-12-05T06:28:49;36.30;;;18.90;;
76848;SDS011;65814;51.134;16.980;2022-12-05T06:31:18;40.10;;;19.90;;
76848;SDS011;65814;51.134;16.980;2022-12-05T06:33:49;32.30;;;16.80;;
76848;SDS011;65814;51.134;16.980;2022-12-05T06:36:26;46.80;;;22.40;;
76848;SDS011;65814;51.134;16.980;2022-12-05T06:38:56;40.40;;;20.70;;
76848;SDS011;65814;51.134;16.980;2022-12-05T06:41:24;35.60;;;17.80;;
76848;SDS011;65814;51.134;16.980;2022-12-05T06:44:07;33.30;;;16.20;;
76848;SDS011;65814;51.134;16.980;2022-12-05T06:46:36;31.40;;;16.70;;
76848;SDS011;65814;51.134;16.980;2022-12-05T06:49:04;33.00;;;19.40;;
76848;SDS011;65814;51.134;16.980;2022-12-05T06:51:32;29.60;;;16.00;;
76848;SDS011;65814;51.134;16.980;2022-12-05T06:54:03;32.90;;;17.80;;
76848;SDS011;65814;51.134;16.980;2022-12-05T06:56:31;38.60;;;19.40;;
76848;SDS011;65814;51.134;16.980;2022-12-05T06:58:59;38.20;;;18.80;;
76848;SDS011;65814;51.134;16.980;2022-12-05T07:01:27;42.40;;;23.40;;
76848;SDS011;65814;51.134;16.980;2022-12-05T07:06:39;33.60;;;16.20;;
76848;SDS011;65814;51.134;16.980;2022-12-05T07:09:14;32.30;;;17.60;;
76848;SDS011;65814;51.134;16.980;2022-12-05T07:12:12;31.70;;;17.10;;
76848;SDS011;65814;51.134;16.980;2022-12-05T07:14:42;29.60;;;16.30;;
76848;SDS011;65814;51.134;16.980;2022-12-05T07:17:33;32.70;;;16.60;;
76848;SDS011;65814;51.134;16.980;2022-12-05T07:20:03;38.50;;;17.50;;
76848;SDS011;65814;51.134;16.980;2022-12-05T07:22:34;39.40;;;18.20;;
76848;SDS011;65814;51.134;16.980;2022-12-05T07:25:03;37.50;;;18.00;;
76848;SDS011;65814;51.134;16.980;2022-12-05T07:27:31;34.60;;;16.70;;
76848;SDS011;65814;51.134;16.980;2022-12-05T07:30:08;31.30;;;19.20;;
76848;SDS011;65814;51.134;16.980;2022-12-05T07:32:36;32.20;;;16.00;;
76848;SDS011;65814;51.134;16.980;2022-12-05T07:35:05;30.50;;;15.20;;
76848;SDS011;65814;51.134;16.980;2022-12-05T07:37:33;27.20;;;15.90;;
76848;SDS011;65814;51.134;16.980;2022-12-05T07:40:01;29.10;;;17.90;;
76848;SDS011;65814;51.134;16.980;2022-12-05T07:42:29;28.50;;;15.90;;
76848;SDS011;65814;51.134;16.980;2022-12-05T07:44:57;175.90;;;66.00;;
76848;SDS011;65814;51.134;16.980;2022-12-05T07:47:28;118.30;;;51.00;;
76848;SDS011;65814;51.134;16.980;2022-12-05T07:49:56;60.70;;;39.10;;
76848;SDS011;65814;51.134;16.980;2022-12-05T07:52:25;36.50;;;21.70;;
76848;SDS011;65814;51.134;16.980;2022-12-05T07:54:56;35.30;;;16.70;;
76848;SDS011;65814;51.134;16.980;2022-12-05T07:57:25;32.60;;;17.40;;
76848;SDS011;65814;51.134;16.980;2022-12-05T07:59:53;31.20;;;17.00;;
76848;SDS011;65814;51.134;16.980;2022-12-05T08:02:22;30.30;;;16.80;;
76848;SDS011;65814;51.134;16.980;2022-12-05T08:04:50;29.80;;;15.80;;
76848;SDS011;65814;51.134;16.980;2022-12-05T08:07:19;28.60;;;16.40;;
76848;SDS011;65814;51.134;16.980;2022-12-05T08:09:47;36.30;;;19.20;;
76848;SDS011;65814;51.134;16.980;2022-12-05T08:12:24;36.60;;;19.20;;
76848;SDS011;65814;51.134;16.980;2022-12-05T08:14:52;36.60;;;16.50;;
76848;SDS011;65814;51.134;16.980;2022-12-05T08:17:21;29.70;;;16.80;;
76848;SDS011;65814;51.134;16.980;2022-12-05T08:19:49;29.40;;;17.80;;
76848;SDS011;65814;51.134;16.980;2022-12-05T08:22:17;32.10;;;17.30;;
76848;SDS011;65814;51.134;16.980;2022-12-05T08:24:45;37.90;;;18.50;;
76848;SDS011;65814;51.134;16.980;2022-12-05T08:27:25;28.30;;;13.80;;
76848;SDS011;65814;51.134;16.980;2022-12-05T08:29:53;28.20;;;15.30;;
76848;SDS011;65814;51.134;16.980;2022-12-05T08:32:22;32.00;;;15.90;;
76848;SDS011;65814;51.134;16.980;2022-12-05T08:34:50;36.50;;;20.20;;
76848;SDS011;65814;51.134;16.980;2022-12-05T08:37:18;34.90;;;16.90;;
76848;SDS011;65814;51.134;16.980;2022-12-05T08:39:47;33.90;;;19.10;;
76848;SDS011;65814;51.134;16.980;2022-12-05T08:42:15;31.30;;;17.90;;
76848;SDS011;65814;51.134;16.980;2022-12-05T08:44:43;32.20;;;17.50;;
76848;SDS011;65814;51.134;16.980;2022-12-05T08:47:11;31.70;;;16.60;;
76848;SDS011;65814;51.134;16.980;2022-12-05T08:49:39;30.10;;;16.00;;
76848;SDS011;65814;51.134;16.980;2022-12-05T08:52:07;33.00;;;16.60;;
76848;SDS011;65814;51.134;16.980;2022-12-05T08:54:35;30.70;;;18.70;;
76848;SDS011;65814;51.134;16.980;2022-12-05T08:57:04;40.10;;;22.40;;
76848;SDS011;65814;51.134;16.980;2022-12-05T08:59:32;40.00;;;22.30;;
76848;SDS011;65814;51.134;16.980;2022-12-05T09:02:00;41.10;;;19.90;;
76848;SDS011;65814;51.134;16.980;2022-12-05T09:04:29;36.30;;;18.30;;
76848;SDS011;65814;51.134;16.980;2022-12-05T09:07:00;39.10;;;19.90;;
76848;SDS011;65814;51.134;16.980;2022-12-05T09:09:30;39.20;;;19.70;;
76848;SDS011;65814;51.134;16.980;2022-12-05T09:11:59;38.10;;;19.70;;
76848;SDS011;65814;51.134;16.980;2022-12-05T09:14:27;31.00;;;17.50;;
76848;SDS011;65814;51.134;16.980;2022-12-05T09:17:00;36.70;;;19.00;;
76848;SDS011;65814;51.134;16.980;2022-12-05T09:19:28;45.90;;;24.40;;
76848;SDS011;65814;51.134;16.980;2022-12-05T09:21:57;48.00;;;24.30;;
76848;SDS011;65814;51.134;16.980;2022-12-05T09:24:28;39.20;;;21.80;;
76848;SDS011;65814;51.134;16.980;2022-12-05T09:26:56;37.30;;;19.40;;
76848;SDS011;65814;51.134;16.980;2022-12-05T09:29:24;39.70;;;19.20;;
76848;SDS011;65814;51.134;16.980;2022-12-05T09:32:05;36.10;;;18.90;;
76848;SDS011;65814;51.134;16.980;2022-12-05T09:34:36;38.10;;;19.60;;
76848;SDS011;65814;51.134;16.980;2022-12-05T09:37:05;39.60;;;18.60;;
76848;SDS011;65814;51.134;16.980;2022-12-05T09:39:54;36.90;;;18.30;;
76848;SDS011;65814;51.134;16.980;2022-12-05T09:47:53;40.60;;;21.20;;
76848;SDS011;65814;51.134;16.980;2022-12-05T10:00:50;50.70;;;25.00;;
76848;SDS011;65814;51.134;16.980;2022-12-05T10:03:25;48.90;;;25.30;;
76848;SDS011;65814;51.134;16.980;2022-12-05T10:06:11;45.40;;;22.00;;
76848;SDS011;65814;51.134;16.980;2022-12-05T10:11:43;41.40;;;21.00;;
76848;SDS011;65814;51.134;16.980;2022-12-05T10:14:38;41.50;;;20.70;;
76848;SDS011;65814;51.134;16.980;2022-12-05T10:17:45;45.60;;;21.50;;
76848;SDS011;65814;51.134;16.980;2022-12-05T10:20:25;48.10;;;22.70;;
76848;SDS011;65814;51.134;16.980;2022-12-05T10:23:03;44.10;;;22.40;;
76848;SDS011;65814;51.134;16.980;2022-12-05T10:26:02;54.70;;;25.70;;
76848;SDS011;65814;51.134;16.980;2022-12-05T10:28:34;59.10;;;28.90;;
76848;SDS011;65814;51.134;16.980;2022-12-05T10:31:08;68.20;;;32.60;;
76848;SDS011;65814;51.134;16.980;2022-12-05T10:33:44;76.60;;;34.90;;
76848;SDS011;65814;51.134;16.980;2022-12-05T10:36:15;50.40;;;24.30;;
76848;SDS011;65814;51.134;16.980;2022-12-05T10:38:44;67.30;;;31.60;;
76848;SDS011;65814;51.134;16.980;2022-12-05T10:41:13;62.40;;;29.30;;
76848;SDS011;65814;51.134;16.980;2022-12-05T10:43:42;53.90;;;26.90;;
76848;SDS011;65814;51.134;16.980;2022-12-05T10:46:11;44.80;;;22.80;;
76848;SDS011;65814;51.134;16.980;2022-12-05T10:48:43;53.70;;;28.50;;
76848;SDS011;65814;51.134;16.980;2022-12-05T10:51:12;48.60;;;26.80;;
76848;SDS011;65814;51.134;16.980;2022-12-05T10:53:46;42.00;;;24.80;;
76848;SDS011;65814;51.134;16.980;2022-12-05T10:56:37;47.20;;;25.00;;
76848;SDS011;65814;51.134;16.980;2022-12-05T10:59:19;39.50;;;22.40;;
76848;SDS011;65814;51.134;16.980;2022-12-05T11:01:53;43.30;;;21.60;;
76848;SDS011;65814;51.134;16.980;2022-12-05T11:04:25;44.60;;;24.30;;
76848;SDS011;65814;51.134;16.980;2022-12-05T11:06:59;51.10;;;23.10;;
76848;SDS011;65814;51.134;16.980;2022-12-05T11:09:30;49.80;;;24.20;;
76848;SDS011;65814;51.134;16.980;2022-12-05T11:14:35;60.20;;;27.80;;
76848;SDS011;65814;51.134;16.980;2022-12-05T11:17:04;51.50;;;25.00;;
76848;SDS011;65814;51.134;16.980;2022-12-05T11:19:34;45.60;;;24.20;;
76848;SDS011;65814;51.134;16.980;2022-12-05T11:22:04;55.80;;;23.80;;
76848;SDS011;65814;51.134;16.980;2022-12-05T11:24:35;56.80;;;25.30;;
76848;SDS011;65814;51.134;16.980;2022-12-05T11:29:43;98.10;;;38.60;;
76848;SDS011;65814;51.134;16.980;2022-12-05T11:32:22;67.30;;;30.30;;
76848;SDS011;65814;51.134;16.980;2022-12-05T11:34:55;59.10;;;29.00;;
76848;SDS011;65814;51.134;16.980;2022-12-05T11:37:28;59.40;;;29.20;;
76848;SDS011;65814;51.134;16.980;2022-12-05T11:45:58;59.80;;;30.40;;
76848;SDS011;65814;51.134;16.980;2022-12-05T11:48:47;51.70;;;25.70;;
76848;SDS011;65814;51.134;16.980;2022-12-05T11:57:17;52.30;;;28.70;;
76848;SDS011;65814;51.134;16.980;2022-12-05T12:00:04;56.60;;;29.30;;
76848;SDS011;65814;51.134;16.980;2022-12-05T12:06:19;46.50;;;24.90;;
76848;SDS011;65814;51.134;16.980;2022-12-05T12:17:24;46.00;;;23.40;;
76848;SDS011;65814;51.134;16.980;2022-12-05T12:25:49;54.50;;;27.30;;
76848;SDS011;65814;51.134;16.980;2022-12-05T12:28:55;48.40;;;26.00;;
76848;SDS011;65814;51.134;16.980;2022-12-05T12:46:39;43.70;;;22.50;;
76848;SDS011;65814;51.134;16.980;2022-12-05T12:49:27;59.30;;;28.60;;
76848;SDS011;65814;51.134;16.980;2022-12-05T12:52:21;53.30;;;25.50;;
76848;SDS011;65814;51.134;16.980;2022-12-05T12:57:41;49.50;;;26.00;;
76848;SDS011;65814;51.134;16.980;2022-12-05T13:03:16;51.20;;;26.50;;
76848;SDS011;65814;51.134;16.980;2022-12-05T13:05:52;53.30;;;26.30;;
76848;SDS011;65814;51.134;16.980;2022-12-05T13:08:34;41.00;;;22.20;;
76848;SDS011;65814;51.134;16.980;2022-12-05T13:11:07;54.00;;;23.50;;
76848;SDS011;65814;51.134;16.980;2022-12-05T13:13:37;51.80;;;27.00;;
76848;SDS011;65814;51.134;16.980;2022-12-05T13:16:09;49.40;;;25.90;;
76848;SDS011;65814;51.134;16.980;2022-12-05T13:18:40;71.10;;;32.80;;
76848;SDS011;65814;51.134;16.980;2022-12-05T13:21:08;79.30;;;32.40;;
76848;SDS011;65814;51.134;16.980;2022-12-05T13:23:40;62.60;;;29.00;;
76848;SDS011;65814;51.134;16.980;2022-12-05T13:26:12;51.00;;;26.30;;
76848;SDS011;65814;51.134;16.980;2022-12-05T13:31:38;54.20;;;26.70;;
76848;SDS011;65814;51.134;16.980;2022-12-05T13:37:30;47.10;;;24.20;;
76848;SDS011;65814;51.134;16.980;2022-12-05T13:40:26;53.80;;;27.00;;
76848;SDS011;65814;51.134;16.980;2022-12-05T13:43:16;89.40;;;40.20;;
76848;SDS011;65814;51.134;16.980;2022-12-05T13:45:56;69.80;;;31.50;;
76848;SDS011;65814;51.134;16.980;2022-12-05T13:48:40;67.20;;;30.50;;
76848;SDS011;65814;51.134;16.980;2022-12-05T13:56:59;110.70;;;40.90;;
76848;SDS011;65814;51.134;16.980;2022-12-05T14:07:47;137.70;;;55.70;;
76848;SDS011;65814;51.134;16.980;2022-12-05T14:15:42;81.00;;;34.10;;
76848;SDS011;65814;51.134;16.980;2022-12-05T14:26:53;55.70;;;26.30;;
76848;SDS011;65814;51.134;16.980;2022-12-05T14:32:31;123.90;;;54.70;;
76848;SDS011;65814;51.134;16.980;2022-12-05T14:35:18;82.80;;;40.30;;
76848;SDS011;65814;51.134;16.980;2022-12-05T14:41:10;99.20;;;50.70;;
76848;SDS011;65814;51.134;16.980;2022-12-05T14:43:59;54.60;;;27.30;;
76848;SDS011;65814;51.134;16.980;2022-12-05T14:46:35;67.20;;;33.10;;
76848;SDS011;65814;51.134;16.980;2022-12-05T14:52:20;50.60;;;27.00;;
76848;SDS011;65814;51.134;16.980;2022-12-05T14:54:56;51.10;;;27.20;;
76848;SDS011;65814;51.134;16.980;2022-12-05T14:57:53;55.00;;;26.20;;
76848;SDS011;65814;51.134;16.980;2022-12-05T15:00:24;42.70;;;23.20;;
76848;SDS011;65814;51.134;16.980;2022-12-05T15:02:53;50.40;;;26.10;;
76848;SDS011;65814;51.134;16.980;2022-12-05T15:05:25;50.00;;;23.50;;
76848;SDS011;65814;51.134;16.980;2022-12-05T15:07:57;40.80;;;21.90;;
76848;SDS011;65814;51.134;16.980;2022-12-05T15:13:03;45.90;;;24.50;;
76848;SDS011;65814;51.134;16.980;2022-12-05T15:15:35;59.50;;;31.60;;
76848;SDS011;65814;51.134;16.980;2022-12-05T15:21:13;48.90;;;24.50;;
76848;SDS011;65814;51.134;16.980;2022-12-05T15:23:59;49.70;;;25.10;;
76848;SDS011;65814;51.134;16.980;2022-12-05T15:31:54;48.00;;;24.90;;
76848;SDS011;65814;51.134;16.980;2022-12-05T15:40:17;53.10;;;27.80;;
76848;SDS011;65814;51.134;16.980;2022-12-05T15:42:49;51.50;;;27.20;;
76848;SDS011;65814;51.134;16.980;2022-12-05T15:45:20;44.20;;;24.10;;
76848;SDS011;65814;51.134;16.980;2022-12-05T15:47:54;45.80;;;25.40;;
76848;SDS011;65814;51.134;16.980;2022-12-05T15:50:34;47.50;;;23.90;;
76848;SDS011;65814;51.134;16.980;2022-12-05T15:53:19;42.50;;;24.40;;
76848;SDS011;65814;51.134;16.980;2022-12-05T15:56:02;43.40;;;22.40;;
76848;SDS011;65814;51.134;16.980;2022-12-05T16:06:33;46.20;;;22.90;;
76848;SDS011;65814;51.134;16.980;2022-12-05T16:09:21;42.90;;;23.70;;
76848;SDS011;65814;51.134;16.980;2022-12-05T16:11:51;47.10;;;23.30;;
76848;SDS011;65814;51.134;16.980;2022-12-05T16:14:22;42.10;;;21.60;;
76848;SDS011;65814;51.134;16.980;2022-12-05T16:17:13;44.60;;;22.80;;
76848;SDS011;65814;51.134;16.980;2022-12-05T16:19:42;43.20;;;22.70;;
76848;SDS011;65814;51.134;16.980;2022-12-05T16:24:39;55.50;;;27.40;;
76848;SDS011;65814;51.134;16.980;2022-12-05T16:27:53;47.50;;;25.90;;
76848;SDS011;65814;51.134;16.980;2022-12-05T16:32:40;44.90;;;22.70;;
76848;SDS011;65814;51.134;16.980;2022-12-05T16:35:28;44.90;;;22.60;;
76848;SDS011;65814;51.134;16.980;2022-12-05T16:40:53;40.30;;;23.40;;
76848;SDS011;65814;51.134;16.980;2022-12-05T16:51:52;47.40;;;24.30;;
76848;SDS011;65814;51.134;16.980;2022-12-05T16:54:44;44.50;;;24.20;;
76848;SDS011;65814;51.134;16.980;2022-12-05T16:57:13;41.60;;;23.50;;
76848;SDS011;65814;51.134;16.980;2022-12-05T16:59:42;43.20;;;21.90;;
76848;SDS011;65814;51.134;16.980;2022-12-05T17:02:28;45.90;;;23.60;;
76848;SDS011;65814;51.134;16.980;2022-12-05T17:04:57;42.90;;;23.60;;
76848;SDS011;65814;51.134;16.980;2022-12-05T17:07:27;53.00;;;25.80;;
76848;SDS011;65814;51.134;16.980;2022-12-05T17:10:04;53.50;;;25.90;;
76848;SDS011;65814;51.134;16.980;2022-12-05T17:12:33;40.20;;;24.50;;
76848;SDS011;65814;51.134;16.980;2022-12-05T17:15:02;45.00;;;25.00;;
76848;SDS011;65814;51.134;16.980;2022-12-05T17:17:30;44.50;;;24.40;;
76848;SDS011;65814;51.134;16.980;2022-12-05T17:19:58;46.30;;;24.20;;
76848;SDS011;65814;51.134;16.980;2022-12-05T17:22:26;43.90;;;22.50;;
76848;SDS011;65814;51.134;16.980;2022-12-05T17:24:55;48.40;;;25.00;;
76848;SDS011;65814;51.134;16.980;2022-12-05T17:27:28;44.30;;;23.30;;
76848;SDS011;65814;51.134;16.980;2022-12-05T17:29:56;54.80;;;27.00;;
76848;SDS011;65814;51.134;16.980;2022-12-05T17:32:24;45.70;;;25.20;;
76848;SDS011;65814;51.134;16.980;2022-12-05T17:34:53;44.40;;;26.30;;
76848;SDS011;65814;51.134;16.980;2022-12-05T17:37:21;45.90;;;26.00;;
76848;SDS011;65814;51.134;16.980;2022-12-05T17:39:49;46.50;;;26.70;;
76848;SDS011;65814;51.134;16.980;2022-12-05T17:42:18;40.50;;;21.90;;
76848;SDS011;65814;51.134;16.980;2022-12-05T17:44:47;36.40;;;21.10;;
76848;SDS011;65814;51.134;16.980;2022-12-05T17:47:15;47.80;;;24.30;;
76848;SDS011;65814;51.134;16.980;2022-12-05T17:49:43;56.00;;;28.70;;
76848;SDS011;65814;51.134;16.980;2022-12-05T17:52:12;49.90;;;25.50;;
76848;SDS011;65814;51.134;16.980;2022-12-05T17:54:48;49.20;;;23.20;;
76848;SDS011;65814;51.134;16.980;2022-12-05T17:57:17;41.70;;;21.90;;
76848;SDS011;65814;51.134;16.980;2022-12-05T17:59:45;45.40;;;25.40;;
76848;SDS011;65814;51.134;16.980;2022-12-05T18:02:13;43.70;;;22.10;;
76848;SDS011;65814;51.134;16.980;2022-12-05T18:04:42;38.70;;;22.10;;
76848;SDS011;65814;51.134;16.980;2022-12-05T18:07:10;40.90;;;24.30;;
76848;SDS011;65814;51.134;16.980;2022-12-05T18:09:39;43.50;;;23.40;;